createdAt,value
2018-11-13T00:00:34.192Z,28.80
2018-11-13T00:03:03.970Z,27.27
2018-11-13T00:05:33.638Z,28.70
2018-11-13T00:08:03.333Z,27.80
2018-11-13T00:10:33.081Z,27.67
2018-11-13T00:13:02.792Z,28.77
2018-11-13T00:15:32.651Z,27.13
2018-11-13T00:18:02.319Z,26.93
2018-11-13T00:20:32.021Z,26.13
2018-11-13T00:23:01.707Z,24.80
2018-11-13T00:25:31.416Z,27.27
2018-11-13T00:28:01.155Z,24.43
2018-11-13T00:30:30.876Z,26.83
2018-11-13T00:33:00.643Z,24.97
2018-11-13T00:35:30.445Z,24.40
2018-11-13T00:38:00.149Z,26.67
2018-11-13T00:40:29.962Z,28.10
2018-11-13T00:42:59.680Z,27.23
2018-11-13T00:45:29.467Z,25.97
2018-11-13T00:47:59.193Z,26.47
2018-11-13T00:50:28.880Z,26.00
2018-11-13T00:52:58.715Z,25.77
2018-11-13T00:55:28.414Z,25.83
2018-11-13T00:57:58.191Z,25.60
2018-11-13T01:00:27.976Z,25.73
2018-11-13T01:02:57.797Z,26.97
2018-11-13T01:05:27.629Z,27.53
2018-11-13T01:07:57.318Z,26.90
2018-11-13T01:10:27.043Z,29.70
2018-11-13T01:12:56.732Z,24.60
2018-11-13T01:15:26.469Z,28.00
2018-11-13T01:17:56.188Z,28.37
2018-11-13T01:20:25.860Z,27.70
2018-11-13T01:22:55.640Z,29.67
2018-11-13T01:25:25.377Z,30.63
2018-11-13T01:27:55.117Z,30.23
2018-11-13T01:30:24.816Z,27.60
2018-11-13T01:32:54.520Z,28.23
2018-11-13T01:35:24.231Z,27.63
2018-11-13T01:37:54.004Z,27.83
2018-11-13T01:40:23.739Z,30.70
2018-11-13T01:42:53.549Z,29.27
2018-11-13T01:45:23.240Z,28.93
2018-11-13T01:47:52.965Z,28.27
2018-11-13T01:50:22.703Z,27.87
2018-11-13T01:52:52.453Z,28.23
2018-11-13T01:55:22.406Z,27.77
2018-11-13T01:57:51.969Z,27.27
2018-11-13T02:00:22.732Z,26.23
2018-11-13T02:02:53.613Z,27.10
2018-11-13T02:05:24.407Z,28.13
2018-11-13T02:07:54.615Z,27.60
2018-11-13T02:10:24.354Z,27.10
2018-11-13T02:12:54.100Z,29.17
2018-11-13T02:15:23.886Z,26.67
2018-11-13T02:17:53.591Z,26.13
2018-11-13T02:20:23.451Z,26.53
2018-11-13T02:22:53.200Z,29.13
2018-11-13T02:25:22.914Z,31.23
2018-11-13T02:27:52.697Z,29.27
2018-11-13T02:30:23.433Z,26.97
2018-11-13T02:32:53.177Z,26.20
2018-11-13T02:35:22.996Z,26.07
2018-11-13T02:37:52.793Z,28.23
2018-11-13T02:40:22.561Z,26.00
2018-11-13T02:42:52.335Z,27.50
2018-11-13T02:45:22.027Z,30.37
2018-11-13T02:47:51.777Z,27.90
2018-11-13T02:50:22.035Z,29.20
2018-11-13T02:52:51.755Z,29.60
2018-11-13T02:55:21.509Z,30.80
2018-11-13T02:57:51.221Z,28.93
2018-11-13T03:00:21.789Z,31.80
2018-11-13T03:02:51.598Z,30.07
2018-11-13T03:05:22.088Z,31.20
2018-11-13T03:07:51.793Z,31.73
2018-11-13T03:10:21.697Z,32.87
2018-11-13T03:12:51.424Z,33.00
2018-11-13T03:15:21.479Z,33.40
2018-11-13T03:17:51.237Z,34.97
2018-11-13T03:20:21.177Z,37.73
2018-11-13T03:22:51.100Z,36.33
2018-11-13T03:25:21.910Z,36.23
2018-11-13T03:27:51.606Z,38.93
2018-11-13T03:30:23.324Z,38.13
2018-11-13T03:32:53.356Z,42.17
2018-11-13T03:35:23.187Z,41.27
2018-11-13T03:37:53.006Z,39.80
2018-11-13T03:40:22.765Z,40.80
2018-11-13T03:42:52.553Z,35.23
2018-11-13T03:45:22.267Z,37.90
2018-11-13T03:47:51.958Z,44.33
2018-11-13T03:50:22.468Z,41.70
2018-11-13T03:52:52.178Z,49.97
2018-11-13T03:55:21.949Z,46.50
2018-11-13T03:57:51.799Z,49.00
2018-11-13T04:00:23.353Z,44.83
2018-11-13T04:02:53.118Z,43.27
2018-11-13T04:05:23.158Z,44.33
2018-11-13T04:07:53.904Z,45.63
2018-11-13T04:10:24.262Z,38.83
2018-11-13T04:12:54.072Z,39.37
2018-11-13T04:15:24.993Z,40.33
2018-11-13T04:17:54.889Z,44.83
2018-11-13T04:20:24.686Z,43.23
2018-11-13T04:22:54.408Z,46.70
2018-11-13T04:25:24.097Z,48.90
2018-11-13T04:27:53.799Z,47.40
2018-11-13T04:30:23.512Z,45.00
2018-11-13T04:32:53.223Z,47.97
2018-11-13T04:35:22.960Z,44.27
2018-11-13T04:37:52.695Z,45.23
2018-11-13T04:40:22.414Z,44.73
2018-11-13T04:42:53.298Z,45.67
2018-11-13T04:45:24.321Z,43.50
2018-11-13T04:47:53.986Z,41.07
2018-11-13T04:50:23.999Z,40.53
2018-11-13T04:52:53.747Z,41.80
2018-11-13T04:55:23.578Z,39.50
2018-11-13T04:57:53.249Z,37.90
2018-11-13T05:00:23.852Z,38.10
2018-11-13T05:02:53.613Z,38.03
2018-11-13T05:05:23.421Z,37.13
2018-11-13T05:07:54.253Z,36.90
2018-11-13T05:10:25.130Z,36.70
2018-11-13T05:12:54.793Z,36.83
2018-11-13T05:15:24.601Z,37.30
2018-11-13T05:17:54.294Z,37.00
2018-11-13T05:20:23.973Z,34.80
2018-11-13T05:22:53.657Z,37.53
2018-11-13T05:25:23.373Z,35.13
2018-11-13T05:27:53.007Z,33.10
2018-11-13T05:30:23.169Z,35.23
2018-11-13T05:32:52.893Z,33.50
2018-11-13T05:35:22.977Z,32.83
2018-11-13T05:37:53.697Z,34.03
2018-11-13T05:40:24.415Z,32.87
2018-11-13T05:42:54.158Z,32.90
2018-11-13T05:45:25.071Z,32.97
2018-11-13T05:47:54.733Z,32.63
2018-11-13T05:50:24.423Z,29.50
2018-11-13T05:52:54.796Z,28.67
2018-11-13T05:55:24.471Z,30.03
2018-11-13T05:57:54.248Z,28.17
2018-11-13T06:00:27.623Z,28.57
2018-11-13T06:02:57.317Z,28.13
2018-11-13T06:05:27.021Z,27.13
2018-11-13T06:07:56.791Z,27.23
2018-11-13T06:10:26.503Z,28.23
2018-11-13T06:12:56.136Z,27.90
2018-11-13T06:15:25.887Z,28.63
2018-11-13T06:17:55.531Z,26.37
2018-11-13T06:20:25.352Z,25.60
2018-11-13T06:22:55.057Z,25.30
2018-11-13T06:25:24.659Z,24.60
2018-11-13T06:27:54.328Z,25.43
2018-11-13T06:30:24.974Z,26.17
2018-11-13T06:32:54.713Z,27.17
2018-11-13T06:35:24.410Z,25.43
2018-11-13T06:37:54.789Z,26.57
2018-11-13T06:40:24.698Z,26.53
2018-11-13T06:42:54.635Z,27.13
2018-11-13T06:45:24.393Z,27.20
2018-11-13T06:47:54.449Z,26.73
2018-11-13T06:50:24.187Z,27.70
2018-11-13T06:52:53.905Z,27.30
2018-11-13T06:55:33.921Z,27.70
2018-11-13T06:58:04.021Z,27.57
2018-11-13T07:00:33.681Z,26.53
2018-11-13T07:03:03.390Z,27.00
2018-11-13T07:05:33.031Z,25.87
2018-11-13T07:08:02.789Z,27.20
2018-11-13T07:10:32.559Z,26.63
2018-11-13T07:13:02.226Z,26.00
2018-11-13T07:15:32.358Z,25.30
2018-11-13T07:18:03.313Z,24.20
2018-11-13T07:20:34.367Z,25.23
2018-11-13T07:23:04.084Z,25.57
2018-11-13T07:25:33.858Z,24.53
2018-11-13T07:28:03.438Z,24.10
2018-11-13T07:30:33.198Z,23.20
2018-11-13T07:33:02.904Z,23.40
2018-11-13T07:35:32.706Z,22.33
2018-11-13T07:38:02.425Z,20.77
2018-11-13T07:40:32.137Z,22.20
2018-11-13T07:43:01.801Z,21.20
2018-11-13T07:45:31.461Z,22.90
2018-11-13T07:48:01.073Z,20.37
2018-11-13T07:50:30.802Z,20.13
2018-11-13T07:53:00.495Z,18.57
2018-11-13T07:55:30.171Z,19.17
2018-11-13T07:57:59.877Z,18.67
2018-11-13T08:00:29.635Z,17.30
2018-11-13T08:03:09.093Z,18.23
2018-11-13T08:05:38.848Z,16.73
2018-11-13T08:08:08.513Z,16.60
2018-11-13T08:10:38.189Z,16.60
2018-11-13T08:13:08.060Z,15.67
2018-11-13T08:15:37.535Z,15.57
2018-11-13T08:18:07.190Z,14.90
2018-11-13T08:20:36.825Z,14.90
2018-11-13T08:23:06.650Z,13.97
2018-11-13T08:25:36.378Z,14.10
2018-11-13T08:28:06.338Z,13.00
2018-11-13T08:30:36.205Z,13.77
2018-11-13T08:33:06.392Z,11.87
2018-11-13T08:35:36.096Z,10.40
2018-11-13T08:38:06.570Z,10.87
2018-11-13T08:40:36.408Z,10.80
2018-11-13T08:43:06.295Z,11.13
2018-11-13T08:45:35.934Z,10.97
2018-11-13T08:48:05.792Z,10.03
2018-11-13T08:50:35.535Z,8.90
2018-11-13T08:53:05.721Z,8.33
2018-11-13T08:55:35.641Z,8.77
2018-11-13T08:58:05.521Z,9.10
2018-11-13T09:00:35.329Z,9.23
2018-11-13T09:03:05.028Z,8.60
2018-11-13T09:05:34.671Z,8.73
2018-11-13T09:08:04.276Z,8.63
2018-11-13T09:10:33.906Z,8.83
2018-11-13T09:13:03.508Z,8.60
2018-11-13T09:15:33.100Z,9.00
2018-11-13T09:18:02.660Z,9.17
2018-11-13T09:20:32.304Z,8.43
2018-11-13T09:23:02.016Z,8.03
2018-11-13T09:25:31.714Z,8.20
2018-11-13T09:28:01.352Z,8.10
2018-11-13T09:30:31.092Z,7.57
2018-11-13T09:33:01.014Z,7.87
2018-11-13T09:35:30.625Z,7.00
2018-11-13T09:38:00.300Z,6.67
2018-11-13T09:40:29.980Z,7.13
2018-11-13T09:42:59.878Z,6.70
2018-11-13T09:45:29.546Z,5.73
2018-11-13T09:47:59.617Z,6.17
2018-11-13T09:50:29.196Z,5.93
2018-11-13T09:52:58.869Z,5.70
2018-11-13T09:55:28.476Z,6.50
2018-11-13T09:57:58.033Z,5.67
2018-11-13T10:00:27.729Z,6.30
2018-11-13T10:02:59.417Z,5.97
2018-11-13T10:05:28.604Z,6.73
2018-11-13T10:07:58.266Z,7.00
2018-11-13T10:10:28.268Z,7.07
2018-11-13T10:12:57.726Z,7.17
2018-11-13T10:15:28.846Z,7.57
2018-11-13T10:18:00.949Z,7.10
2018-11-13T10:20:30.517Z,7.57
2018-11-13T10:23:00.296Z,8.47
2018-11-13T10:25:29.909Z,7.57
2018-11-13T10:28:01.107Z,8.70
2018-11-13T10:30:30.706Z,8.43
2018-11-13T10:33:00.379Z,7.70
2018-11-13T10:35:30.009Z,9.03
2018-11-13T10:37:59.630Z,8.83
2018-11-13T10:40:29.400Z,8.80
2018-11-13T10:42:58.906Z,9.13
2018-11-13T10:45:29.176Z,8.60
2018-11-13T10:47:58.832Z,8.73
2018-11-13T10:50:28.492Z,8.97
2018-11-13T10:52:58.064Z,7.37
2018-11-13T10:55:27.730Z,8.20
2018-11-13T10:57:57.393Z,8.40
2018-11-13T11:02:37.150Z,7.70
2018-11-13T11:05:09.578Z,7.23
2018-11-13T11:07:39.168Z,6.10
2018-11-13T11:10:09.066Z,6.63
2018-11-13T11:12:38.757Z,6.30
2018-11-13T11:15:08.918Z,6.00
2018-11-13T11:17:38.445Z,6.37
2018-11-13T11:20:10.073Z,5.53
2018-11-13T11:22:39.737Z,4.67
2018-11-13T11:25:10.597Z,4.50
2018-11-13T11:27:40.209Z,4.23
2018-11-13T11:30:12.164Z,4.47
2018-11-13T11:32:41.764Z,4.33
2018-11-13T11:35:11.501Z,4.40
2018-11-13T11:37:41.401Z,4.20
2018-11-13T11:40:11.886Z,4.83
2018-11-13T11:42:41.523Z,4.23
2018-11-13T11:45:12.906Z,5.17
2018-11-13T11:47:42.650Z,4.70
2018-11-13T11:50:13.324Z,4.67
2018-11-13T11:52:42.912Z,4.83
2018-11-13T11:55:13.181Z,4.40
2018-11-13T11:57:42.707Z,4.60
2018-11-13T12:00:16.482Z,4.30
2018-11-13T12:02:46.149Z,3.80
2018-11-13T12:05:16.088Z,3.73
2018-11-13T12:07:45.637Z,4.00
2018-11-13T12:10:15.274Z,4.20
2018-11-13T12:12:44.901Z,3.87
2018-11-13T12:15:14.623Z,3.73
2018-11-13T12:17:44.694Z,3.70
2018-11-13T12:20:15.268Z,4.00
2018-11-13T12:22:44.979Z,3.77
2018-11-13T12:25:17.093Z,4.40
2018-11-13T12:27:46.791Z,4.10
2018-11-13T12:30:18.032Z,3.93
2018-11-13T12:32:48.487Z,4.30
2018-11-13T12:35:19.088Z,3.57
2018-11-13T12:37:48.698Z,3.83
2018-11-13T12:40:20.288Z,3.90
2018-11-13T12:42:50.324Z,4.37
2018-11-13T12:45:20.383Z,3.63
2018-11-13T12:47:49.927Z,3.30
2018-11-13T12:50:20.255Z,3.30
2018-11-13T12:52:49.807Z,3.10
2018-11-13T12:55:20.670Z,3.20
2018-11-13T12:57:50.262Z,2.87
2018-11-13T13:00:25.445Z,2.57
2018-11-13T13:02:55.031Z,2.33
2018-11-13T13:05:24.686Z,2.30
2018-11-13T13:07:54.249Z,2.50
2018-11-13T13:10:23.811Z,2.40
2018-11-13T13:12:53.536Z,2.47
2018-11-13T13:15:23.171Z,2.27
2018-11-13T13:17:52.742Z,2.23
2018-11-13T13:20:23.799Z,2.23
2018-11-13T13:22:53.550Z,1.60
2018-11-13T13:25:23.991Z,1.40
2018-11-13T13:27:53.531Z,1.40
2018-11-13T13:30:24.424Z,1.40
2018-11-13T13:32:53.958Z,1.60
2018-11-13T13:36:02.525Z,1.20
2018-11-13T13:38:33.830Z,1.67
2018-11-13T13:41:04.173Z,1.50
2018-11-13T13:43:34.353Z,1.47
2018-11-13T13:46:03.950Z,1.70
2018-11-13T13:48:33.709Z,1.37
2018-11-13T13:51:03.257Z,1.40
2018-11-13T13:53:32.913Z,1.50
2018-11-13T13:56:02.488Z,1.40
2018-11-13T13:58:32.173Z,1.40
2018-11-13T14:01:01.879Z,1.70
2018-11-13T14:03:31.761Z,1.50
2018-11-13T14:06:01.332Z,1.80
2018-11-13T14:08:31.160Z,1.90
2018-11-13T14:11:00.972Z,1.43
2018-11-13T14:13:30.677Z,1.40
2018-11-13T14:16:01.414Z,1.70
2018-11-13T14:18:31.054Z,1.83
2018-11-13T14:21:00.806Z,1.70
2018-11-13T14:23:30.409Z,1.60
2018-11-13T14:26:00.241Z,1.60
2018-11-13T14:28:29.809Z,2.03
2018-11-13T14:30:59.454Z,2.10
2018-11-13T14:33:29.252Z,1.90
2018-11-13T14:35:58.794Z,1.97
2018-11-13T14:38:28.352Z,2.67
2018-11-13T14:40:58.032Z,2.00
2018-11-13T14:43:27.719Z,2.00
2018-11-13T14:45:57.208Z,2.10
2018-11-13T14:48:26.744Z,2.40
2018-11-13T14:50:57.936Z,1.97
2018-11-13T14:53:32.091Z,2.50
2018-11-13T14:56:01.638Z,2.67
2018-11-13T14:58:31.214Z,2.10
2018-11-13T15:01:00.826Z,1.80
2018-11-13T15:03:30.420Z,2.00
2018-11-13T15:05:59.970Z,1.90
2018-11-13T15:08:29.568Z,1.60
2018-11-13T15:10:59.151Z,1.50
2018-11-13T15:13:28.716Z,2.20
2018-11-13T15:15:58.333Z,1.70
2018-11-13T15:18:27.859Z,1.70
2018-11-13T15:20:57.449Z,1.77
2018-11-13T15:23:26.957Z,1.67
2018-11-13T15:25:56.795Z,2.00
2018-11-13T15:28:26.270Z,1.87
2018-11-13T15:30:55.779Z,2.00
2018-11-13T15:33:25.546Z,2.20
2018-11-13T15:35:55.123Z,2.30
2018-11-13T15:38:24.749Z,2.23
2018-11-13T15:40:54.416Z,2.07
2018-11-13T15:43:23.969Z,2.10
2018-11-13T15:45:55.351Z,2.00
2018-11-13T15:48:25.017Z,1.93
2018-11-13T15:50:54.650Z,2.00
2018-11-13T15:53:24.959Z,2.63
2018-11-13T15:55:54.562Z,2.40
2018-11-13T15:58:24.163Z,2.37
2018-11-13T16:00:54.449Z,2.57
2018-11-13T16:03:25.981Z,2.60
2018-11-13T16:05:56.108Z,3.40
2018-11-13T16:08:25.732Z,3.47
2018-11-13T16:10:55.260Z,3.60
2018-11-13T16:13:24.759Z,3.20
2018-11-13T16:15:54.346Z,3.57
2018-11-13T16:18:25.334Z,3.60
2018-11-13T16:20:54.949Z,4.17
2018-11-13T16:23:24.630Z,3.70
2018-11-13T16:25:54.330Z,3.60
2018-11-13T16:28:23.886Z,3.80
2018-11-13T16:30:53.629Z,3.60
2018-11-13T16:33:24.843Z,3.47
2018-11-13T16:35:54.452Z,3.50
2018-11-13T16:38:24.271Z,4.40
2018-11-13T16:40:54.006Z,3.60
2018-11-13T16:43:24.676Z,3.90
2018-11-13T16:45:54.251Z,3.67
2018-11-13T16:48:23.958Z,3.57
2018-11-13T16:50:53.464Z,3.80
2018-11-13T16:53:23.047Z,3.27
2018-11-13T16:55:56.770Z,3.37
2018-11-13T16:58:26.280Z,3.70
2018-11-13T17:00:56.000Z,3.70
2018-11-13T17:03:25.762Z,3.70
2018-11-13T17:05:55.318Z,3.47
2018-11-13T17:08:24.848Z,3.23
2018-11-13T17:10:54.393Z,3.20
2018-11-13T17:13:23.940Z,4.13
2018-11-13T17:15:53.554Z,3.30
2018-11-13T17:18:23.190Z,3.60
2018-11-13T17:20:52.820Z,3.63
2018-11-13T17:23:22.523Z,3.80
2018-11-13T17:25:52.220Z,4.40
2018-11-13T17:28:21.782Z,3.57
2018-11-13T17:30:51.682Z,3.60
2018-11-13T17:33:21.854Z,3.60
2018-11-13T17:35:51.339Z,3.60
2018-11-13T17:38:20.993Z,3.27
2018-11-13T17:40:50.995Z,3.30
2018-11-13T17:43:20.591Z,4.27
2018-11-13T17:45:50.217Z,3.47
2018-11-13T17:48:20.169Z,3.60
2018-11-13T17:50:49.735Z,4.00
2018-11-13T17:53:19.394Z,4.13
2018-11-13T17:55:49.005Z,3.80
2018-11-13T17:58:18.577Z,4.33
2018-11-13T18:00:48.492Z,4.70
2018-11-13T18:03:18.605Z,3.90
2018-11-13T18:05:48.870Z,4.07
2018-11-13T18:08:18.397Z,4.80
2018-11-13T18:10:48.155Z,3.90
2018-11-13T18:13:17.807Z,4.00
2018-11-13T18:15:47.345Z,3.83
2018-11-13T18:18:16.885Z,4.10
2018-11-13T18:20:46.436Z,3.90
2018-11-13T18:23:16.049Z,4.43
2018-11-13T18:25:45.681Z,3.97
2018-11-13T18:28:15.451Z,4.37
2018-11-13T18:30:45.115Z,3.93
2018-11-13T18:33:15.968Z,3.90
2018-11-13T18:35:45.563Z,3.77
2018-11-13T18:38:15.742Z,3.87
2018-11-13T18:40:45.635Z,4.33
2018-11-13T18:43:14.943Z,4.03
2018-11-13T18:45:44.573Z,4.53
2018-11-13T18:48:14.328Z,4.23
2018-11-13T18:50:45.286Z,3.77
2018-11-13T18:53:14.871Z,4.37
2018-11-13T18:55:44.431Z,4.60
2018-11-13T18:58:14.000Z,4.23
2018-11-13T19:00:43.554Z,3.70
2018-11-13T19:03:13.725Z,4.60
2018-11-13T19:05:43.290Z,4.63
2018-11-13T19:08:12.882Z,3.90
2018-11-13T19:10:45.037Z,4.50
2018-11-13T19:13:16.187Z,4.10
2018-11-13T19:15:48.052Z,4.50
2018-11-13T19:18:18.445Z,4.03
2018-11-13T19:20:48.174Z,4.33
2018-11-13T19:23:18.134Z,4.63
2018-11-13T19:25:47.763Z,4.37
2018-11-13T19:28:17.481Z,4.47
2018-11-13T19:30:47.129Z,4.97
2018-11-13T19:33:16.836Z,4.70
2018-11-13T19:35:46.471Z,3.97
2018-11-13T19:38:16.026Z,4.40
2018-11-13T19:40:45.655Z,4.13
2018-11-13T19:43:16.016Z,4.27
2018-11-13T19:45:45.409Z,4.63
2018-11-13T19:48:15.013Z,4.53
2018-11-13T19:50:44.647Z,4.60
2018-11-13T19:53:14.338Z,5.30
2018-11-13T19:55:43.985Z,5.20
2018-11-13T19:58:13.600Z,4.53
2018-11-13T20:00:43.221Z,5.30
2018-11-13T20:03:13.048Z,4.97
2018-11-13T20:05:43.342Z,5.20
2018-11-13T20:08:13.645Z,5.00
2018-11-13T20:10:44.106Z,5.27
2018-11-13T20:13:15.105Z,5.10
2018-11-13T20:15:45.380Z,5.30
2018-11-13T20:18:15.788Z,5.10
2018-11-13T20:20:45.887Z,5.07
2018-11-13T20:23:16.187Z,5.43
2018-11-13T20:25:46.463Z,4.70
2018-11-13T20:28:16.929Z,5.53
2018-11-13T20:30:46.630Z,5.77
2018-11-13T20:33:16.413Z,4.80
2018-11-13T20:35:46.991Z,5.63
2018-11-13T20:38:17.848Z,5.90
2018-11-13T20:40:47.617Z,6.50
2018-11-13T20:43:17.435Z,5.83
2018-11-13T20:45:47.694Z,5.03
2018-11-13T20:48:17.545Z,5.60
2018-11-13T20:50:49.507Z,5.57
2018-11-13T20:53:20.135Z,5.90
2018-11-13T20:55:50.245Z,6.03
2018-11-13T20:58:21.625Z,6.83
2018-11-13T21:00:52.629Z,7.17
2018-11-13T21:03:24.743Z,6.83
2018-11-13T21:05:54.546Z,7.97
2018-11-13T21:08:25.833Z,7.40
2018-11-13T21:11:00.775Z,7.53
2018-11-13T21:13:30.134Z,8.80
2018-11-13T21:16:00.860Z,8.33
2018-11-13T21:18:30.490Z,8.07
2018-11-13T21:21:00.250Z,7.87
2018-11-13T21:23:29.829Z,8.43
2018-11-13T21:25:59.388Z,8.67
2018-11-13T21:28:28.940Z,8.77
2018-11-13T21:30:58.576Z,8.97
2018-11-13T21:33:28.219Z,8.67
2018-11-13T21:35:57.798Z,9.33
2018-11-13T21:38:27.738Z,9.70
2018-11-13T21:40:57.532Z,9.33
2018-11-13T21:43:27.233Z,8.93
2018-11-13T21:45:56.787Z,10.00
2018-11-13T21:48:26.339Z,8.83
2018-11-13T21:50:55.934Z,9.73
2018-11-13T21:53:25.519Z,10.40
2018-11-13T21:55:55.125Z,10.13
2018-11-13T21:58:24.873Z,9.93
2018-11-13T22:00:54.481Z,10.27
2018-11-13T22:03:24.053Z,10.30
2018-11-13T22:05:55.416Z,10.43
2018-11-13T22:08:25.039Z,10.67
2018-11-13T22:10:54.593Z,10.90
2018-11-13T22:13:24.088Z,11.13
2018-11-13T22:15:53.696Z,10.37
2018-11-13T22:18:23.241Z,10.83
2018-11-13T22:20:52.856Z,11.00
2018-11-13T22:23:22.771Z,11.20
2018-11-13T22:25:51.959Z,11.00
2018-11-13T22:28:25.921Z,10.37
2018-11-13T22:30:57.384Z,11.73
2018-11-13T22:33:30.101Z,11.47
2018-11-13T22:36:01.141Z,11.23
2018-11-13T22:38:30.908Z,12.17
2018-11-13T22:41:03.204Z,11.87
2018-11-13T22:43:37.547Z,11.47
2018-11-13T22:46:07.171Z,11.47
2018-11-13T22:48:36.767Z,12.17
2018-11-13T22:51:06.490Z,12.00
2018-11-13T22:53:36.013Z,12.53
2018-11-13T22:56:05.660Z,12.17
2018-11-13T22:58:35.230Z,12.23
2018-11-13T23:01:05.211Z,11.60
2018-11-13T23:03:34.810Z,13.47
2018-11-13T23:06:04.362Z,12.97
2018-11-13T23:08:33.976Z,12.73
2018-11-13T23:11:08.725Z,13.20
2018-11-13T23:13:38.400Z,13.70
2018-11-13T23:16:07.950Z,13.17
2018-11-13T23:18:37.709Z,14.10
2018-11-13T23:21:07.245Z,13.50
2018-11-13T23:23:36.832Z,13.47
2018-11-13T23:26:06.430Z,12.73
2018-11-13T23:28:35.915Z,13.80
2018-11-13T23:31:05.489Z,14.47
2018-11-13T23:33:35.009Z,13.97
2018-11-13T23:36:04.833Z,14.17
2018-11-13T23:38:34.476Z,14.00
2018-11-13T23:41:04.054Z,14.47
2018-11-13T23:43:33.576Z,14.40
2018-11-13T23:46:03.118Z,15.07
2018-11-13T23:48:32.850Z,14.70
2018-11-13T23:51:02.324Z,15.67
2018-11-13T23:53:31.897Z,14.90
2018-11-13T23:56:01.375Z,15.80
2018-11-13T23:58:30.916Z,16.00
